sensor_id;sensor_type;location;lat;lon;timestamp;pressure;altitude;pressure_sealevel;temperature;humidity
9899;BME280;4988;49.238;6.698;2023-09-08T00:02:04;99262.09;;;17.88;100.00
9899;BME280;4988;49.238;6.698;2023-09-08T00:04:29;99273.66;;;17.77;100.00
9899;BME280;4988;49.238;6.698;2023-09-08T00:06:55;99272.44;;;17.57;100.00
9899;BME280;4988;49.238;6.698;2023-09-08T00:09:20;99264.06;;;17.49;100.00
9899;BME280;4988;49.238;6.698;2023-09-08T00:11:45;99261.47;;;17.60;100.00
9899;BME280;4988;49.238;6.698;2023-09-08T00:14:11;99263.72;;;17.66;100.00
9899;BME280;4988;49.238;6.698;2023-09-08T00:16:36;99262.94;;;17.64;100.00
9899;BME280;4988;49.238;6.698;2023-09-08T00:19:04;99257.09;;;17.71;100.00
9899;BME280;4988;49.238;6.698;2023-09-08T00:21:29;99265.56;;;17.77;100.00
9899;BME280;4988;49.238;6.698;2023-09-08T00:23:54;99258.88;;;17.83;100.00
9899;BME280;4988;49.238;6.698;2023-09-08T00:26:20;99259.47;;;17.75;100.00
9899;BME280;4988;49.238;6.698;2023-09-08T00:28:47;99263.25;;;17.73;100.00
9899;BME280;4988;49.238;6.698;2023-09-08T00:31:12;99268.44;;;17.63;100.00
9899;BME280;4988;49.238;6.698;2023-09-08T00:33:37;99264.44;;;17.68;100.00
9899;BME280;4988;49.238;6.698;2023-09-08T00:36:03;99266.72;;;17.62;100.00
9899;BME280;4988;49.238;6.698;2023-09-08T00:38:28;99267.38;;;17.65;100.00
9899;BME280;4988;49.238;6.698;2023-09-08T00:40:54;99270.25;;;17.75;100.00
9899;BME280;4988;49.238;6.698;2023-09-08T00:43:19;99269.59;;;17.72;100.00
9899;BME280;4988;49.238;6.698;2023-09-08T00:45:45;99264.94;;;17.74;100.00
9899;BME280;4988;49.238;6.698;2023-09-08T00:48:11;99263.97;;;17.75;100.00
9899;BME280;4988;49.238;6.698;2023-09-08T00:50:36;99272.63;;;17.67;100.00
9899;BME280;4988;49.238;6.698;2023-09-08T00:53:06;99270.16;;;17.64;100.00
9899;BME280;4988;49.238;6.698;2023-09-08T00:55:31;99268.16;;;17.42;100.00
9899;BME280;4988;49.238;6.698;2023-09-08T00:57:58;99269.72;;;17.20;100.00
9899;BME280;4988;49.238;6.698;2023-09-08T01:00:25;99272.41;;;17.07;100.00
9899;BME280;4988;49.238;6.698;2023-09-08T01:02:50;99271.56;;;17.07;100.00
9899;BME280;4988;49.238;6.698;2023-09-08T01:05:15;99269.53;;;17.10;100.00
9899;BME280;4988;49.238;6.698;2023-09-08T01:07:42;99272.34;;;17.09;100.00
9899;BME280;4988;49.238;6.698;2023-09-08T01:10:07;99275.03;;;17.09;100.00
9899;BME280;4988;49.238;6.698;2023-09-08T01:12:33;99280.41;;;17.09;100.00
9899;BME280;4988;49.238;6.698;2023-09-08T01:15:00;99275.66;;;16.99;100.00
9899;BME280;4988;49.238;6.698;2023-09-08T01:17:26;99281.34;;;16.95;100.00
9899;BME280;4988;49.238;6.698;2023-09-08T01:19:54;99279.22;;;17.00;100.00
9899;BME280;4988;49.238;6.698;2023-09-08T01:22:28;99281.13;;;17.11;100.00
9899;BME280;4988;49.238;6.698;2023-09-08T01:25:09;99281.13;;;17.11;100.00
9899;BME280;4988;49.238;6.698;2023-09-08T01:27:39;99277.38;;;17.13;100.00
9899;BME280;4988;49.238;6.698;2023-09-08T01:30:06;99281.03;;;16.99;100.00
9899;BME280;4988;49.238;6.698;2023-09-08T01:32:34;99280.38;;;16.83;100.00
9899;BME280;4988;49.238;6.698;2023-09-08T01:34:59;99281.66;;;16.64;100.00
9899;BME280;4988;49.238;6.698;2023-09-08T01:37:25;99279.41;;;16.58;100.00
9899;BME280;4988;49.238;6.698;2023-09-08T01:39:51;99281.09;;;16.59;100.00
9899;BME280;4988;49.238;6.698;2023-09-08T01:42:16;99282.38;;;16.53;100.00
9899;BME280;4988;49.238;6.698;2023-09-08T01:44:42;99284.78;;;16.71;100.00
9899;BME280;4988;49.238;6.698;2023-09-08T01:47:07;99280.91;;;16.62;100.00
9899;BME280;4988;49.238;6.698;2023-09-08T01:49:32;99275.84;;;16.70;100.00
9899;BME280;4988;49.238;6.698;2023-09-08T01:51:58;99273.81;;;16.74;100.00
9899;BME280;4988;49.238;6.698;2023-09-08T01:54:23;99273.38;;;16.67;100.00
9899;BME280;4988;49.238;6.698;2023-09-08T01:56:48;99272.53;;;16.67;100.00
9899;BME280;4988;49.238;6.698;2023-09-08T01:59:14;99267.78;;;16.70;100.00
9899;BME280;4988;49.238;6.698;2023-09-08T02:01:39;99267.38;;;16.77;100.00
9899;BME280;4988;49.238;6.698;2023-09-08T02:04:05;99267.25;;;16.78;100.00
9899;BME280;4988;49.238;6.698;2023-09-08T02:06:30;99261.09;;;16.76;100.00
9899;BME280;4988;49.238;6.698;2023-09-08T02:08:56;99258.31;;;16.78;100.00
9899;BME280;4988;49.238;6.698;2023-09-08T02:11:21;99265.41;;;16.79;100.00
9899;BME280;4988;49.238;6.698;2023-09-08T02:13:46;99263.28;;;16.84;100.00
9899;BME280;4988;49.238;6.698;2023-09-08T02:16:15;99258.94;;;16.81;100.00
9899;BME280;4988;49.238;6.698;2023-09-08T02:18:41;99267.13;;;16.80;100.00
9899;BME280;4988;49.238;6.698;2023-09-08T02:21:07;99262.84;;;16.77;100.00
9899;BME280;4988;49.238;6.698;2023-09-08T02:23:32;99261.34;;;16.73;100.00
9899;BME280;4988;49.238;6.698;2023-09-08T02:25:57;99256.81;;;16.73;99.89
9899;BME280;4988;49.238;6.698;2023-09-08T02:28:23;99256.38;;;16.80;99.40
9899;BME280;4988;49.238;6.698;2023-09-08T02:30:48;99260.69;;;16.69;100.00
9899;BME280;4988;49.238;6.698;2023-09-08T02:33:13;99263.56;;;16.66;100.00
9899;BME280;4988;49.238;6.698;2023-09-08T02:35:39;99258.97;;;16.68;99.76
9899;BME280;4988;49.238;6.698;2023-09-08T02:38:04;99268.75;;;16.69;100.00
9899;BME280;4988;49.238;6.698;2023-09-08T02:40:30;99268.88;;;16.68;100.00
9899;BME280;4988;49.238;6.698;2023-09-08T02:42:55;99264.88;;;16.61;100.00
9899;BME280;4988;49.238;6.698;2023-09-08T02:45:20;99270.78;;;16.66;100.00
9899;BME280;4988;49.238;6.698;2023-09-08T02:47:45;99267.22;;;16.65;100.00
9899;BME280;4988;49.238;6.698;2023-09-08T02:50:11;99263.91;;;16.62;100.00
9899;BME280;4988;49.238;6.698;2023-09-08T02:52:36;99273.78;;;16.61;99.75
9899;BME280;4988;49.238;6.698;2023-09-08T02:55:02;99273.91;;;16.60;99.69
9899;BME280;4988;49.238;6.698;2023-09-08T02:57:27;99273.03;;;16.59;99.01
9899;BME280;4988;49.238;6.698;2023-09-08T02:59:53;99276.38;;;16.50;100.00
9899;BME280;4988;49.238;6.698;2023-09-08T03:02:21;99279.81;;;16.52;99.76
9899;BME280;4988;49.238;6.698;2023-09-08T03:04:46;99274.63;;;16.49;99.97
9899;BME280;4988;49.238;6.698;2023-09-08T03:07:11;99276.97;;;16.40;100.00
9899;BME280;4988;49.238;6.698;2023-09-08T03:09:37;99279.78;;;16.39;100.00
9899;BME280;4988;49.238;6.698;2023-09-08T03:12:02;99276.03;;;16.42;100.00
9899;BME280;4988;49.238;6.698;2023-09-08T03:14:28;99277.41;;;16.34;100.00
9899;BME280;4988;49.238;6.698;2023-09-08T03:16:53;99276.66;;;16.32;100.00
9899;BME280;4988;49.238;6.698;2023-09-08T03:19:19;99275.03;;;16.30;100.00
9899;BME280;4988;49.238;6.698;2023-09-08T03:21:44;99275.91;;;16.30;99.89
9899;BME280;4988;49.238;6.698;2023-09-08T03:24:10;99281.28;;;16.30;99.74
9899;BME280;4988;49.238;6.698;2023-09-08T03:26:35;99272.25;;;16.31;99.85
9899;BME280;4988;49.238;6.698;2023-09-08T03:29:00;99275.13;;;16.28;99.86
9899;BME280;4988;49.238;6.698;2023-09-08T03:31:26;99269.03;;;16.26;100.00
9899;BME280;4988;49.238;6.698;2023-09-08T03:33:51;99269.97;;;16.25;100.00
9899;BME280;4988;49.238;6.698;2023-09-08T03:36:16;99278.22;;;16.22;100.00
9899;BME280;4988;49.238;6.698;2023-09-08T03:38:41;99279.09;;;16.22;100.00
9899;BME280;4988;49.238;6.698;2023-09-08T03:41:07;99272.84;;;16.22;100.00
9899;BME280;4988;49.238;6.698;2023-09-08T03:43:32;99269.31;;;16.21;100.00
9899;BME280;4988;49.238;6.698;2023-09-08T03:45:57;99264.91;;;16.20;100.00
9899;BME280;4988;49.238;6.698;2023-09-08T03:48:23;99267.41;;;16.23;99.93
9899;BME280;4988;49.238;6.698;2023-09-08T03:50:48;99273.94;;;16.19;100.00
9899;BME280;4988;49.238;6.698;2023-09-08T03:53:14;99268.84;;;16.15;100.00
9899;BME280;4988;49.238;6.698;2023-09-08T03:55:39;99261.88;;;16.12;100.00
9899;BME280;4988;49.238;6.698;2023-09-08T03:58:05;99268.72;;;16.03;100.00
9899;BME280;4988;49.238;6.698;2023-09-08T04:00:30;99267.88;;;16.03;100.00
9899;BME280;4988;49.238;6.698;2023-09-08T04:02:55;99276.41;;;15.95;100.00
9899;BME280;4988;49.238;6.698;2023-09-08T04:05:21;99268.06;;;16.00;100.00
9899;BME280;4988;49.238;6.698;2023-09-08T04:07:47;99276.41;;;15.95;99.69
9899;BME280;4988;49.238;6.698;2023-09-08T04:10:13;99276.19;;;15.85;100.00
9899;BME280;4988;49.238;6.698;2023-09-08T04:12:41;99276.66;;;15.77;100.00
9899;BME280;4988;49.238;6.698;2023-09-08T04:15:08;99275.66;;;15.66;100.00
9899;BME280;4988;49.238;6.698;2023-09-08T04:17:34;99271.72;;;15.57;100.00
9899;BME280;4988;49.238;6.698;2023-09-08T04:20:01;99270.59;;;15.47;100.00
9899;BME280;4988;49.238;6.698;2023-09-08T04:22:26;99270.03;;;15.41;100.00
9899;BME280;4988;49.238;6.698;2023-09-08T04:24:52;99274.63;;;15.39;100.00
9899;BME280;4988;49.238;6.698;2023-09-08T04:27:19;99275.94;;;15.47;100.00
9899;BME280;4988;49.238;6.698;2023-09-08T04:29:44;99281.22;;;15.48;100.00
9899;BME280;4988;49.238;6.698;2023-09-08T04:32:10;99286.69;;;15.47;100.00
9899;BME280;4988;49.238;6.698;2023-09-08T04:34:37;99278.06;;;15.41;100.00
9899;BME280;4988;49.238;6.698;2023-09-08T04:37:03;99284.97;;;15.46;100.00
9899;BME280;4988;49.238;6.698;2023-09-08T04:39:28;99281.13;;;15.50;100.00
9899;BME280;4988;49.238;6.698;2023-09-08T04:41:54;99283.22;;;15.59;100.00
9899;BME280;4988;49.238;6.698;2023-09-08T04:44:19;99283.50;;;15.54;100.00
9899;BME280;4988;49.238;6.698;2023-09-08T04:46:44;99276.50;;;15.52;100.00
9899;BME280;4988;49.238;6.698;2023-09-08T04:49:11;99281.88;;;15.52;100.00
9899;BME280;4988;49.238;6.698;2023-09-08T04:51:36;99290.16;;;15.49;100.00
9899;BME280;4988;49.238;6.698;2023-09-08T04:54:02;99286.03;;;15.43;100.00
9899;BME280;4988;49.238;6.698;2023-09-08T04:56:28;99293.00;;;15.46;100.00
9899;BME280;4988;49.238;6.698;2023-09-08T04:58:53;99295.50;;;15.49;100.00
9899;BME280;4988;49.238;6.698;2023-09-08T05:01:20;99294.75;;;15.47;100.00
9899;BME280;4988;49.238;6.698;2023-09-08T05:03:45;99299.03;;;15.49;100.00
9899;BME280;4988;49.238;6.698;2023-09-08T05:06:11;99303.00;;;15.43;100.00
9899;BME280;4988;49.238;6.698;2023-09-08T05:08:36;99299.38;;;15.30;100.00
9899;BME280;4988;49.238;6.698;2023-09-08T05:11:01;99304.13;;;15.25;100.00
9899;BME280;4988;49.238;6.698;2023-09-08T05:13:27;99301.94;;;15.17;100.00
9899;BME280;4988;49.238;6.698;2023-09-08T05:15:53;99305.88;;;14.97;100.00
9899;BME280;4988;49.238;6.698;2023-09-08T05:18:25;99309.88;;;14.90;100.00
9899;BME280;4988;49.238;6.698;2023-09-08T05:20:51;99315.88;;;14.79;100.00
9899;BME280;4988;49.238;6.698;2023-09-08T05:23:16;99314.91;;;14.66;100.00
9899;BME280;4988;49.238;6.698;2023-09-08T05:25:42;99311.81;;;14.57;100.00
9899;BME280;4988;49.238;6.698;2023-09-08T05:28:07;99312.44;;;14.46;100.00
9899;BME280;4988;49.238;6.698;2023-09-08T05:30:33;99316.34;;;14.41;100.00
9899;BME280;4988;49.238;6.698;2023-09-08T05:32:58;99323.31;;;14.43;100.00
9899;BME280;4988;49.238;6.698;2023-09-08T05:35:24;99321.56;;;14.58;100.00
9899;BME280;4988;49.238;6.698;2023-09-08T05:37:50;99322.56;;;14.72;100.00
9899;BME280;4988;49.238;6.698;2023-09-08T05:40:15;99316.47;;;14.84;100.00
9899;BME280;4988;49.238;6.698;2023-09-08T05:42:41;99326.94;;;15.03;100.00
9899;BME280;4988;49.238;6.698;2023-09-08T05:45:06;99314.59;;;15.15;100.00
9899;BME280;4988;49.238;6.698;2023-09-08T05:47:32;99320.44;;;15.22;100.00
9899;BME280;4988;49.238;6.698;2023-09-08T05:49:57;99320.72;;;15.32;100.00
9899;BME280;4988;49.238;6.698;2023-09-08T05:52:22;99329.25;;;15.24;100.00
9899;BME280;4988;49.238;6.698;2023-09-08T05:54:47;99332.88;;;15.08;100.00
9899;BME280;4988;49.238;6.698;2023-09-08T05:57:13;99332.41;;;15.02;100.00
9899;BME280;4988;49.238;6.698;2023-09-08T05:59:42;99334.78;;;14.92;100.00
9899;BME280;4988;49.238;6.698;2023-09-08T06:02:07;99327.88;;;14.88;100.00
9899;BME280;4988;49.238;6.698;2023-09-08T06:04:33;99323.31;;;15.04;100.00
9899;BME280;4988;49.238;6.698;2023-09-08T06:06:58;99322.53;;;15.17;100.00
9899;BME280;4988;49.238;6.698;2023-09-08T06:09:24;99321.22;;;15.24;100.00
9899;BME280;4988;49.238;6.698;2023-09-08T06:11:49;99324.63;;;15.40;100.00
9899;BME280;4988;49.238;6.698;2023-09-08T06:14:14;99324.13;;;15.48;100.00
9899;BME280;4988;49.238;6.698;2023-09-08T06:16:39;99330.75;;;15.57;100.00
9899;BME280;4988;49.238;6.698;2023-09-08T06:19:05;99329.72;;;15.59;100.00
9899;BME280;4988;49.238;6.698;2023-09-08T06:21:30;99328.44;;;15.65;100.00
9899;BME280;4988;49.238;6.698;2023-09-08T06:23:56;99334.19;;;15.73;100.00
9899;BME280;4988;49.238;6.698;2023-09-08T06:26:21;99328.16;;;15.84;100.00
9899;BME280;4988;49.238;6.698;2023-09-08T06:28:46;99329.16;;;15.96;100.00
9899;BME280;4988;49.238;6.698;2023-09-08T06:31:12;99338.13;;;16.10;100.00
9899;BME280;4988;49.238;6.698;2023-09-08T06:33:39;99326.81;;;16.19;100.00
9899;BME280;4988;49.238;6.698;2023-09-08T06:36:05;99333.06;;;16.32;100.00
9899;BME280;4988;49.238;6.698;2023-09-08T06:38:31;99333.09;;;16.45;100.00
9899;BME280;4988;49.238;6.698;2023-09-08T06:40:56;99320.66;;;16.57;100.00
9899;BME280;4988;49.238;6.698;2023-09-08T06:43:22;99325.09;;;16.71;100.00
9899;BME280;4988;49.238;6.698;2023-09-08T06:45:50;99324.47;;;16.80;100.00
9899;BME280;4988;49.238;6.698;2023-09-08T06:48:16;99331.47;;;16.83;100.00
9899;BME280;4988;49.238;6.698;2023-09-08T06:50:42;99329.31;;;16.88;100.00
9899;BME280;4988;49.238;6.698;2023-09-08T06:53:07;99325.25;;;16.95;100.00
9899;BME280;4988;49.238;6.698;2023-09-08T06:55:32;99330.84;;;17.18;100.00
9899;BME280;4988;49.238;6.698;2023-09-08T06:57:58;99325.66;;;17.28;100.00
9899;BME280;4988;49.238;6.698;2023-09-08T07:00:23;99318.38;;;17.30;100.00
9899;BME280;4988;49.238;6.698;2023-09-08T07:02:49;99329.34;;;17.40;100.00
9899;BME280;4988;49.238;6.698;2023-09-08T07:05:15;99327.56;;;17.51;100.00
9899;BME280;4988;49.238;6.698;2023-09-08T07:07:41;99330.69;;;17.58;100.00
9899;BME280;4988;49.238;6.698;2023-09-08T07:10:07;99331.28;;;17.75;100.00
9899;BME280;4988;49.238;6.698;2023-09-08T07:12:33;99333.53;;;17.81;100.00
9899;BME280;4988;49.238;6.698;2023-09-08T07:14:59;99330.91;;;17.92;100.00
9899;BME280;4988;49.238;6.698;2023-09-08T07:17:27;99333.59;;;18.05;100.00
9899;BME280;4988;49.238;6.698;2023-09-08T07:19:53;99335.50;;;18.16;100.00
9899;BME280;4988;49.238;6.698;2023-09-08T07:22:18;99334.34;;;18.31;100.00
9899;BME280;4988;49.238;6.698;2023-09-08T07:24:44;99332.22;;;18.48;99.67
9899;BME280;4988;49.238;6.698;2023-09-08T07:27:10;99332.13;;;18.61;98.77
9899;BME280;4988;49.238;6.698;2023-09-08T07:29:37;99324.06;;;18.72;99.19
9899;BME280;4988;49.238;6.698;2023-09-08T07:32:03;99326.34;;;18.90;97.87
9899;BME280;4988;49.238;6.698;2023-09-08T07:34:28;99328.19;;;19.01;97.52
9899;BME280;4988;49.238;6.698;2023-09-08T07:36:54;99327.97;;;19.15;96.98
9899;BME280;4988;49.238;6.698;2023-09-08T07:39:19;99327.00;;;19.27;95.74
9899;BME280;4988;49.238;6.698;2023-09-08T07:41:44;99322.97;;;19.44;94.33
9899;BME280;4988;49.238;6.698;2023-09-08T07:44:09;99328.97;;;19.59;92.41
9899;BME280;4988;49.238;6.698;2023-09-08T07:46:35;99328.84;;;19.72;92.20
9899;BME280;4988;49.238;6.698;2023-09-08T07:49:00;99327.88;;;19.85;92.20
9899;BME280;4988;49.238;6.698;2023-09-08T07:51:26;99328.31;;;20.01;91.26
9899;BME280;4988;49.238;6.698;2023-09-08T07:53:53;99323.16;;;20.09;90.48
9899;BME280;4988;49.238;6.698;2023-09-08T07:56:18;99333.78;;;20.22;89.70
9899;BME280;4988;49.238;6.698;2023-09-08T07:58:43;99325.91;;;20.31;89.56
9899;BME280;4988;49.238;6.698;2023-09-08T08:01:09;99327.34;;;20.46;88.60
9899;BME280;4988;49.238;6.698;2023-09-08T08:03:34;99315.47;;;20.59;88.70
9899;BME280;4988;49.238;6.698;2023-09-08T08:06:00;99323.88;;;20.77;87.27
9899;BME280;4988;49.238;6.698;2023-09-08T08:08:26;99318.28;;;20.89;85.81
9899;BME280;4988;49.238;6.698;2023-09-08T08:10:51;99329.63;;;21.04;85.75
9899;BME280;4988;49.238;6.698;2023-09-08T08:13:16;99325.00;;;21.16;85.54
9899;BME280;4988;49.238;6.698;2023-09-08T08:15:43;99321.78;;;21.32;83.93
9899;BME280;4988;49.238;6.698;2023-09-08T08:18:09;99321.56;;;21.45;82.22
9899;BME280;4988;49.238;6.698;2023-09-08T08:20:35;99318.28;;;21.51;81.56
9899;BME280;4988;49.238;6.698;2023-09-08T08:23:05;99319.94;;;21.64;82.45
9899;BME280;4988;49.238;6.698;2023-09-08T08:25:30;99323.41;;;21.76;82.82
9899;BME280;4988;49.238;6.698;2023-09-08T08:27:56;99317.88;;;21.87;82.21
9899;BME280;4988;49.238;6.698;2023-09-08T08:30:23;99319.88;;;21.95;80.48
9899;BME280;4988;49.238;6.698;2023-09-08T08:32:48;99317.34;;;22.03;80.25
9899;BME280;4988;49.238;6.698;2023-09-08T08:35:16;99318.50;;;22.20;81.29
9899;BME280;4988;49.238;6.698;2023-09-08T08:37:41;99319.34;;;22.30;78.41
9899;BME280;4988;49.238;6.698;2023-09-08T08:40:09;99322.38;;;22.37;77.25
9899;BME280;4988;49.238;6.698;2023-09-08T08:42:36;99319.25;;;22.42;76.69
9899;BME280;4988;49.238;6.698;2023-09-08T08:45:02;99323.25;;;22.47;76.50
9899;BME280;4988;49.238;6.698;2023-09-08T08:47:28;99313.81;;;22.52;76.50
9899;BME280;4988;49.238;6.698;2023-09-08T08:49:57;99314.53;;;22.63;76.25
9899;BME280;4988;49.238;6.698;2023-09-08T08:52:25;99307.78;;;22.77;76.57
9899;BME280;4988;49.238;6.698;2023-09-08T08:54:50;99308.66;;;22.88;74.23
9899;BME280;4988;49.238;6.698;2023-09-08T08:57:16;99309.06;;;22.93;74.58
9899;BME280;4988;49.238;6.698;2023-09-08T08:59:41;99307.47;;;23.00;75.11
9899;BME280;4988;49.238;6.698;2023-09-08T09:02:08;99311.88;;;23.11;74.77
9899;BME280;4988;49.238;6.698;2023-09-08T09:04:36;99309.59;;;23.26;75.27
9899;BME280;4988;49.238;6.698;2023-09-08T09:07:02;99305.78;;;23.37;74.08
9899;BME280;4988;49.238;6.698;2023-09-08T09:09:29;99305.63;;;23.48;73.70
9899;BME280;4988;49.238;6.698;2023-09-08T09:11:54;99311.16;;;23.56;74.01
9899;BME280;4988;49.238;6.698;2023-09-08T09:14:20;99315.38;;;23.69;74.56
9899;BME280;4988;49.238;6.698;2023-09-08T09:16:46;99318.47;;;23.84;71.48
9899;BME280;4988;49.238;6.698;2023-09-08T09:19:21;99307.72;;;23.82;71.95
9899;BME280;4988;49.238;6.698;2023-09-08T09:21:51;99309.72;;;23.90;73.32
9899;BME280;4988;49.238;6.698;2023-09-08T09:24:38;99309.19;;;24.04;73.69
9899;BME280;4988;49.238;6.698;2023-09-08T09:27:06;99309.13;;;24.14;73.76
9899;BME280;4988;49.238;6.698;2023-09-08T09:29:33;99301.22;;;24.21;72.19
9899;BME280;4988;49.238;6.698;2023-09-08T09:32:04;99311.69;;;24.34;71.89
9899;BME280;4988;49.238;6.698;2023-09-08T09:34:31;99310.84;;;24.51;72.26
9899;BME280;4988;49.238;6.698;2023-09-08T09:36:56;99310.56;;;24.72;73.33
9899;BME280;4988;49.238;6.698;2023-09-08T09:39:23;99305.16;;;24.81;71.43
9899;BME280;4988;49.238;6.698;2023-09-08T09:41:53;99303.03;;;24.93;71.34
9899;BME280;4988;49.238;6.698;2023-09-08T09:44:19;99301.22;;;25.01;70.99
9899;BME280;4988;49.238;6.698;2023-09-08T09:46:45;99299.09;;;25.13;70.27
9899;BME280;4988;49.238;6.698;2023-09-08T09:49:12;99298.97;;;25.23;69.55
9899;BME280;4988;49.238;6.698;2023-09-08T09:51:45;99301.59;;;25.33;68.80
9899;BME280;4988;49.238;6.698;2023-09-08T09:54:13;99298.88;;;25.33;68.30
9899;BME280;4988;49.238;6.698;2023-09-08T09:56:39;99294.97;;;25.35;69.45
9899;BME280;4988;49.238;6.698;2023-09-08T09:59:09;99292.97;;;25.46;70.20
9899;BME280;4988;49.238;6.698;2023-09-08T10:01:36;99289.44;;;25.53;69.50
9899;BME280;4988;49.238;6.698;2023-09-08T10:04:03;99293.34;;;25.51;67.84
9899;BME280;4988;49.238;6.698;2023-09-08T10:06:31;99290.78;;;25.49;69.11
9899;BME280;4988;49.238;6.698;2023-09-08T10:08:59;99300.91;;;25.65;67.39
9899;BME280;4988;49.238;6.698;2023-09-08T10:11:28;99288.63;;;25.69;67.44
9899;BME280;4988;49.238;6.698;2023-09-08T10:13:58;99289.31;;;25.63;67.15
9899;BME280;4988;49.238;6.698;2023-09-08T10:16:26;99286.91;;;25.60;67.83
9899;BME280;4988;49.238;6.698;2023-09-08T10:18:52;99289.50;;;25.70;69.02
9899;BME280;4988;49.238;6.698;2023-09-08T10:21:21;99284.59;;;25.74;66.86
9899;BME280;4988;49.238;6.698;2023-09-08T10:23:59;99278.97;;;25.75;68.54
9899;BME280;4988;49.238;6.698;2023-09-08T10:26:30;99279.88;;;25.92;68.94
9899;BME280;4988;49.238;6.698;2023-09-08T10:28:58;99275.78;;;26.05;68.28
9899;BME280;4988;49.238;6.698;2023-09-08T10:31:26;99269.03;;;26.25;70.83
9899;BME280;4988;49.238;6.698;2023-09-08T10:33:55;99272.97;;;26.39;66.86
9899;BME280;4988;49.238;6.698;2023-09-08T10:36:23;99278.59;;;26.46;66.75
9899;BME280;4988;49.238;6.698;2023-09-08T10:38:49;99270.25;;;26.47;66.36
9899;BME280;4988;49.238;6.698;2023-09-08T10:43:55;99274.34;;;26.76;65.43
9899;BME280;4988;49.238;6.698;2023-09-08T10:46:30;99272.81;;;26.82;65.76
9899;BME280;4988;49.238;6.698;2023-09-08T10:49:06;99273.16;;;26.87;65.97
9899;BME280;4988;49.238;6.698;2023-09-08T10:51:33;99276.38;;;26.91;64.71
9899;BME280;4988;49.238;6.698;2023-09-08T10:54:00;99268.38;;;26.89;64.67
9899;BME280;4988;49.238;6.698;2023-09-08T10:56:47;99267.00;;;26.85;63.54
9899;BME280;4988;49.238;6.698;2023-09-08T10:59:15;99270.41;;;26.87;66.24
9899;BME280;4988;49.238;6.698;2023-09-08T11:01:40;99275.00;;;27.03;66.61
9899;BME280;4988;49.238;6.698;2023-09-08T11:04:07;99262.84;;;27.06;64.51
9899;BME280;4988;49.238;6.698;2023-09-08T11:06:34;99262.53;;;27.09;63.45
9899;BME280;4988;49.238;6.698;2023-09-08T11:09:06;99257.22;;;27.07;65.12
9899;BME280;4988;49.238;6.698;2023-09-08T11:11:33;99256.34;;;27.15;63.83
9899;BME280;4988;49.238;6.698;2023-09-08T11:13:58;99259.75;;;27.17;63.88
9899;BME280;4988;49.238;6.698;2023-09-08T11:16:24;99253.06;;;27.20;64.07
9899;BME280;4988;49.238;6.698;2023-09-08T11:18:54;99260.56;;;27.26;62.80
9899;BME280;4988;49.238;6.698;2023-09-08T11:21:20;99248.47;;;27.20;65.22
9899;BME280;4988;49.238;6.698;2023-09-08T11:23:45;99253.75;;;27.30;64.87
9899;BME280;4988;49.238;6.698;2023-09-08T11:26:11;99251.13;;;27.37;64.41
9899;BME280;4988;49.238;6.698;2023-09-08T11:28:37;99250.44;;;27.35;64.09
9899;BME280;4988;49.238;6.698;2023-09-08T11:31:02;99252.84;;;27.38;64.16
9899;BME280;4988;49.238;6.698;2023-09-08T11:33:33;99254.41;;;27.40;63.85
9899;BME280;4988;49.238;6.698;2023-09-08T11:35:59;99249.09;;;27.47;62.33
9899;BME280;4988;49.238;6.698;2023-09-08T11:38:28;99251.66;;;27.49;60.94
9899;BME280;4988;49.238;6.698;2023-09-08T11:40:55;99251.47;;;27.50;62.22
9899;BME280;4988;49.238;6.698;2023-09-08T11:43:22;99249.03;;;27.55;60.26
9899;BME280;4988;49.238;6.698;2023-09-08T11:45:47;99240.84;;;27.55;60.06
9899;BME280;4988;49.238;6.698;2023-09-08T11:48:14;99249.50;;;27.67;60.89
9899;BME280;4988;49.238;6.698;2023-09-08T11:50:41;99250.84;;;27.71;59.55
9899;BME280;4988;49.238;6.698;2023-09-08T11:53:07;99243.31;;;27.73;59.65
9899;BME280;4988;49.238;6.698;2023-09-08T11:55:32;99251.00;;;27.78;59.38
9899;BME280;4988;49.238;6.698;2023-09-08T11:57:58;99247.84;;;27.89;60.18
9899;BME280;4988;49.238;6.698;2023-09-08T12:00:26;99246.09;;;27.97;54.75
9899;BME280;4988;49.238;6.698;2023-09-08T12:02:51;99252.53;;;28.04;54.48
9899;BME280;4988;49.238;6.698;2023-09-08T12:05:27;99240.91;;;28.02;53.00
9899;BME280;4988;49.238;6.698;2023-09-08T12:07:56;99247.75;;;28.06;53.47
9899;BME280;4988;49.238;6.698;2023-09-08T12:10:23;99244.28;;;28.12;54.02
9899;BME280;4988;49.238;6.698;2023-09-08T12:12:50;99240.72;;;28.12;55.01
9899;BME280;4988;49.238;6.698;2023-09-08T12:15:39;99243.97;;;28.07;56.28
9899;BME280;4988;49.238;6.698;2023-09-08T12:18:06;99248.53;;;28.15;56.03
9899;BME280;4988;49.238;6.698;2023-09-08T12:20:34;99245.56;;;28.24;55.38
9899;BME280;4988;49.238;6.698;2023-09-08T12:23:04;99233.56;;;28.25;55.16
9899;BME280;4988;49.238;6.698;2023-09-08T12:25:31;99243.50;;;28.27;56.18
9899;BME280;4988;49.238;6.698;2023-09-08T12:27:58;99231.06;;;28.39;57.63
9899;BME280;4988;49.238;6.698;2023-09-08T12:30:24;99233.63;;;28.40;55.56
9899;BME280;4988;49.238;6.698;2023-09-08T12:32:56;99235.13;;;28.43;54.80
9899;BME280;4988;49.238;6.698;2023-09-08T12:35:22;99222.59;;;28.49;55.62
9899;BME280;4988;49.238;6.698;2023-09-08T12:38:08;99225.09;;;28.59;54.04
9899;BME280;4988;49.238;6.698;2023-09-08T12:40:35;99224.34;;;28.65;52.71
9899;BME280;4988;49.238;6.698;2023-09-08T12:43:01;99215.09;;;28.66;51.05
9899;BME280;4988;49.238;6.698;2023-09-08T12:45:27;99211.88;;;28.62;52.03
9899;BME280;4988;49.238;6.698;2023-09-08T12:47:52;99215.84;;;28.60;51.36
9899;BME280;4988;49.238;6.698;2023-09-08T12:50:20;99217.78;;;28.74;51.23
9899;BME280;4988;49.238;6.698;2023-09-08T12:52:45;99219.31;;;28.92;51.50
9899;BME280;4988;49.238;6.698;2023-09-08T12:55:11;99220.81;;;28.94;51.35
9899;BME280;4988;49.238;6.698;2023-09-08T12:57:36;99213.81;;;28.92;51.21
9899;BME280;4988;49.238;6.698;2023-09-08T13:00:05;99212.59;;;28.94;49.08
9899;BME280;4988;49.238;6.698;2023-09-08T13:02:31;99205.88;;;28.97;50.93
9899;BME280;4988;49.238;6.698;2023-09-08T13:04:56;99205.97;;;29.03;50.77
9899;BME280;4988;49.238;6.698;2023-09-08T13:07:23;99197.19;;;29.08;48.33
9899;BME280;4988;49.238;6.698;2023-09-08T13:09:48;99199.75;;;29.10;47.82
9899;BME280;4988;49.238;6.698;2023-09-08T13:12:14;99192.72;;;29.07;48.11
9899;BME280;4988;49.238;6.698;2023-09-08T13:14:40;99200.88;;;29.15;47.33
9899;BME280;4988;49.238;6.698;2023-09-08T13:17:05;99191.69;;;29.23;46.28